sensor_id;sensor_type;location;lat;lon;timestamp;pressure;altitude;pressure_sealevel;temperature;humidity
55755;BME280;41674;52.290;-1.474;2023-12-07T00:01:17;100730.90;;;1.30;100.00
55755;BME280;41674;52.290;-1.474;2023-12-07T00:03:46;100729.70;;;1.57;100.00
55755;BME280;41674;52.290;-1.474;2023-12-07T00:06:16;100733.68;;;2.92;100.00
55755;BME280;41674;52.290;-1.474;2023-12-07T00:08:45;100739.55;;;2.22;100.00
55755;BME280;41674;52.290;-1.474;2023-12-07T00:11:14;100743.73;;;2.28;100.00
55755;BME280;41674;52.290;-1.474;2023-12-07T00:13:44;100740.73;;;1.86;100.00
55755;BME280;41674;52.290;-1.474;2023-12-07T00:16:13;100736.54;;;2.78;100.00
55755;BME280;41674;52.290;-1.474;2023-12-07T00:18:43;100737.57;;;2.88;100.00
55755;BME280;41674;52.290;-1.474;2023-12-07T00:21:13;100739.72;;;2.21;100.00
55755;BME280;41674;52.290;-1.474;2023-12-07T00:23:41;100732.30;;;3.39;100.00
55755;BME280;41674;52.290;-1.474;2023-12-07T00:26:10;100738.68;;;2.04;100.00
55755;BME280;41674;52.290;-1.474;2023-12-07T00:28:40;100730.78;;;2.58;100.00
55755;BME280;41674;52.290;-1.474;2023-12-07T00:31:10;100723.45;;;2.65;100.00
55755;BME280;41674;52.290;-1.474;2023-12-07T00:33:38;100723.67;;;3.09;100.00
55755;BME280;41674;52.290;-1.474;2023-12-07T00:36:08;100726.25;;;1.98;100.00
55755;BME280;41674;52.290;-1.474;2023-12-07T00:38:37;100718.50;;;3.57;100.00
55755;BME280;41674;52.290;-1.474;2023-12-07T00:41:07;100714.44;;;3.80;100.00
55755;BME280;41674;52.290;-1.474;2023-12-07T00:43:36;100712.87;;;3.35;100.00
55755;BME280;41674;52.290;-1.474;2023-12-07T00:46:07;100713.29;;;3.25;100.00
55755;BME280;41674;52.290;-1.474;2023-12-07T00:48:35;100709.51;;;3.92;100.00
55755;BME280;41674;52.290;-1.474;2023-12-07T00:51:05;100699.40;;;3.69;100.00
55755;BME280;41674;52.290;-1.474;2023-12-07T00:53:34;100698.58;;;3.11;100.00
55755;BME280;41674;52.290;-1.474;2023-12-07T00:56:04;100694.37;;;3.10;100.00
55755;BME280;41674;52.290;-1.474;2023-12-07T00:58:33;100693.36;;;3.02;100.00
55755;BME280;41674;52.290;-1.474;2023-12-07T01:01:03;100691.31;;;3.39;100.00
55755;BME280;41674;52.290;-1.474;2023-12-07T01:03:32;100683.67;;;3.30;100.00
55755;BME280;41674;52.290;-1.474;2023-12-07T01:06:01;100687.15;;;3.10;100.00
55755;BME280;41674;52.290;-1.474;2023-12-07T01:08:31;100689.81;;;3.10;100.00
55755;BME280;41674;52.290;-1.474;2023-12-07T01:11:00;100689.22;;;3.04;100.00
55755;BME280;41674;52.290;-1.474;2023-12-07T01:13:30;100679.60;;;2.41;100.00
55755;BME280;41674;52.290;-1.474;2023-12-07T01:16:00;100683.20;;;3.00;100.00
55755;BME280;41674;52.290;-1.474;2023-12-07T01:18:29;100680.16;;;3.34;100.00
55755;BME280;41674;52.290;-1.474;2023-12-07T01:20:58;100677.70;;;3.73;100.00
55755;BME280;41674;52.290;-1.474;2023-12-07T01:23:28;100673.45;;;3.35;100.00
55755;BME280;41674;52.290;-1.474;2023-12-07T01:25:57;100664.50;;;4.42;100.00
55755;BME280;41674;52.290;-1.474;2023-12-07T01:28:26;100669.70;;;3.51;100.00
55755;BME280;41674;52.290;-1.474;2023-12-07T01:30:56;100665.30;;;3.45;100.00
55755;BME280;41674;52.290;-1.474;2023-12-07T01:33:25;100668.45;;;2.23;100.00
55755;BME280;41674;52.290;-1.474;2023-12-07T01:35:54;100661.98;;;3.65;100.00
55755;BME280;41674;52.290;-1.474;2023-12-07T01:38:23;100656.43;;;3.37;100.00
55755;BME280;41674;52.290;-1.474;2023-12-07T01:40:52;100660.89;;;3.34;100.00
55755;BME280;41674;52.290;-1.474;2023-12-07T01:43:23;100653.62;;;3.98;100.00
55755;BME280;41674;52.290;-1.474;2023-12-07T01:45:52;100637.50;;;3.77;100.00
55755;BME280;41674;52.290;-1.474;2023-12-07T01:48:21;100629.98;;;3.37;100.00
55755;BME280;41674;52.290;-1.474;2023-12-07T01:50:50;100620.93;;;2.92;100.00
55755;BME280;41674;52.290;-1.474;2023-12-07T01:53:21;100616.27;;;3.08;100.00
55755;BME280;41674;52.290;-1.474;2023-12-07T01:55:50;100613.82;;;2.59;100.00
55755;BME280;41674;52.290;-1.474;2023-12-07T01:58:19;100609.55;;;2.81;100.00
55755;BME280;41674;52.290;-1.474;2023-12-07T02:00:48;100608.62;;;2.15;100.00
55755;BME280;41674;52.290;-1.474;2023-12-07T02:03:17;100605.01;;;3.28;100.00
55755;BME280;41674;52.290;-1.474;2023-12-07T02:05:48;100598.84;;;2.46;100.00
55755;BME280;41674;52.290;-1.474;2023-12-07T02:08:16;100598.37;;;3.25;100.00
55755;BME280;41674;52.290;-1.474;2023-12-07T02:10:45;100594.78;;;3.44;100.00
55755;BME280;41674;52.290;-1.474;2023-12-07T02:13:15;100595.01;;;2.19;100.00
55755;BME280;41674;52.290;-1.474;2023-12-07T02:15:44;100591.48;;;2.56;100.00
55755;BME280;41674;52.290;-1.474;2023-12-07T02:18:18;100591.12;;;3.16;100.00
55755;BME280;41674;52.290;-1.474;2023-12-07T02:20:47;100584.77;;;3.08;100.00
55755;BME280;41674;52.290;-1.474;2023-12-07T02:23:14;100579.21;;;3.11;100.00
55755;BME280;41674;52.290;-1.474;2023-12-07T02:25:46;100574.59;;;3.22;100.00
55755;BME280;41674;52.290;-1.474;2023-12-07T02:28:12;100571.53;;;2.97;100.00
55755;BME280;41674;52.290;-1.474;2023-12-07T02:30:41;100564.91;;;2.31;100.00
55755;BME280;41674;52.290;-1.474;2023-12-07T02:33:11;100564.39;;;2.00;100.00
55755;BME280;41674;52.290;-1.474;2023-12-07T02:35:41;100559.92;;;1.82;100.00
55755;BME280;41674;52.290;-1.474;2023-12-07T02:40:40;100553.95;;;2.31;100.00
55755;BME280;41674;52.290;-1.474;2023-12-07T02:43:09;100551.63;;;1.98;100.00
55755;BME280;41674;52.290;-1.474;2023-12-07T02:45:37;100539.32;;;1.88;100.00
55755;BME280;41674;52.290;-1.474;2023-12-07T02:48:07;100546.71;;;1.82;100.00
55755;BME280;41674;52.290;-1.474;2023-12-07T02:50:36;100541.16;;;2.22;100.00
55755;BME280;41674;52.290;-1.474;2023-12-07T02:53:06;100535.10;;;3.03;100.00
55755;BME280;41674;52.290;-1.474;2023-12-07T02:55:36;100532.68;;;2.57;100.00
55755;BME280;41674;52.290;-1.474;2023-12-07T02:58:05;100537.28;;;2.77;100.00
55755;BME280;41674;52.290;-1.474;2023-12-07T03:00:35;100531.27;;;3.36;100.00
55755;BME280;41674;52.290;-1.474;2023-12-07T03:03:05;100528.91;;;2.41;100.00
55755;BME280;41674;52.290;-1.474;2023-12-07T03:05:34;100517.59;;;2.41;100.00
55755;BME280;41674;52.290;-1.474;2023-12-07T03:08:04;100511.31;;;1.91;100.00
55755;BME280;41674;52.290;-1.474;2023-12-07T03:10:33;100504.73;;;1.27;100.00
55755;BME280;41674;52.290;-1.474;2023-12-07T03:13:03;100502.32;;;1.92;100.00
55755;BME280;41674;52.290;-1.474;2023-12-07T03:15:32;100494.92;;;2.07;100.00
55755;BME280;41674;52.290;-1.474;2023-12-07T03:18:02;100484.82;;;1.85;100.00
55755;BME280;41674;52.290;-1.474;2023-12-07T03:20:31;100479.94;;;1.52;100.00
55755;BME280;41674;52.290;-1.474;2023-12-07T03:23:01;100476.27;;;1.22;100.00
55755;BME280;41674;52.290;-1.474;2023-12-07T03:25:30;100477.01;;;1.66;100.00
55755;BME280;41674;52.290;-1.474;2023-12-07T03:28:00;100471.30;;;1.54;100.00
55755;BME280;41674;52.290;-1.474;2023-12-07T03:30:29;100471.48;;;1.48;100.00
55755;BME280;41674;52.290;-1.474;2023-12-07T03:32:59;100469.93;;;1.35;100.00
55755;BME280;41674;52.290;-1.474;2023-12-07T03:35:28;100466.02;;;1.70;100.00
55755;BME280;41674;52.290;-1.474;2023-12-07T03:37:58;100459.37;;;2.07;100.00
55755;BME280;41674;52.290;-1.474;2023-12-07T03:40:28;100453.52;;;2.00;100.00
55755;BME280;41674;52.290;-1.474;2023-12-07T03:42:57;100454.70;;;2.30;100.00
55755;BME280;41674;52.290;-1.474;2023-12-07T03:45:26;100451.21;;;1.88;100.00
55755;BME280;41674;52.290;-1.474;2023-12-07T03:47:56;100451.74;;;2.40;100.00
55755;BME280;41674;52.290;-1.474;2023-12-07T03:50:26;100439.12;;;2.20;100.00
55755;BME280;41674;52.290;-1.474;2023-12-07T03:52:55;100438.10;;;1.64;100.00
55755;BME280;41674;52.290;-1.474;2023-12-07T03:55:25;100440.21;;;2.42;100.00
55755;BME280;41674;52.290;-1.474;2023-12-07T03:57:55;100437.45;;;2.19;100.00
55755;BME280;41674;52.290;-1.474;2023-12-07T04:00:24;100425.49;;;2.56;100.00
55755;BME280;41674;52.290;-1.474;2023-12-07T04:02:54;100421.78;;;2.45;100.00
55755;BME280;41674;52.290;-1.474;2023-12-07T04:05:24;100411.04;;;2.41;100.00
55755;BME280;41674;52.290;-1.474;2023-12-07T04:07:53;100413.28;;;2.58;100.00
55755;BME280;41674;52.290;-1.474;2023-12-07T04:10:23;100411.08;;;1.99;100.00
55755;BME280;41674;52.290;-1.474;2023-12-07T04:12:53;100403.61;;;2.34;100.00
55755;BME280;41674;52.290;-1.474;2023-12-07T04:15:22;100397.05;;;2.15;100.00
55755;BME280;41674;52.290;-1.474;2023-12-07T04:17:52;100390.30;;;1.90;100.00
55755;BME280;41674;52.290;-1.474;2023-12-07T04:20:21;100388.19;;;2.33;100.00
55755;BME280;41674;52.290;-1.474;2023-12-07T04:22:51;100376.15;;;2.36;100.00
55755;BME280;41674;52.290;-1.474;2023-12-07T04:25:20;100373.93;;;1.67;100.00
55755;BME280;41674;52.290;-1.474;2023-12-07T04:27:50;100373.86;;;1.88;100.00
55755;BME280;41674;52.290;-1.474;2023-12-07T04:30:20;100363.45;;;2.25;100.00
55755;BME280;41674;52.290;-1.474;2023-12-07T04:32:49;100364.12;;;1.88;100.00
55755;BME280;41674;52.290;-1.474;2023-12-07T04:35:19;100361.99;;;2.60;100.00
55755;BME280;41674;52.290;-1.474;2023-12-07T04:37:48;100366.82;;;2.41;100.00
55755;BME280;41674;52.290;-1.474;2023-12-07T04:40:18;100367.17;;;2.12;100.00
55755;BME280;41674;52.290;-1.474;2023-12-07T04:42:47;100365.43;;;1.51;100.00
55755;BME280;41674;52.290;-1.474;2023-12-07T04:45:17;100363.94;;;1.94;100.00
55755;BME280;41674;52.290;-1.474;2023-12-07T04:47:46;100358.09;;;2.36;100.00
55755;BME280;41674;52.290;-1.474;2023-12-07T04:50:15;100357.24;;;1.87;100.00
55755;BME280;41674;52.290;-1.474;2023-12-07T04:52:45;100345.61;;;1.84;100.00
55755;BME280;41674;52.290;-1.474;2023-12-07T04:55:15;100338.87;;;1.96;100.00
55755;BME280;41674;52.290;-1.474;2023-12-07T04:57:44;100328.44;;;2.40;100.00
55755;BME280;41674;52.290;-1.474;2023-12-07T05:00:14;100328.20;;;2.21;100.00
55755;BME280;41674;52.290;-1.474;2023-12-07T05:02:44;100325.61;;;1.93;100.00
55755;BME280;41674;52.290;-1.474;2023-12-07T05:05:13;100329.11;;;1.95;100.00
55755;BME280;41674;52.290;-1.474;2023-12-07T05:07:42;100328.61;;;2.12;100.00
55755;BME280;41674;52.290;-1.474;2023-12-07T05:10:11;100317.31;;;2.53;100.00
55755;BME280;41674;52.290;-1.474;2023-12-07T05:12:41;100314.39;;;2.53;100.00
55755;BME280;41674;52.290;-1.474;2023-12-07T05:15:10;100316.96;;;1.91;100.00
55755;BME280;41674;52.290;-1.474;2023-12-07T05:17:40;100309.33;;;2.26;100.00
55755;BME280;41674;52.290;-1.474;2023-12-07T05:20:10;100310.70;;;2.27;100.00
55755;BME280;41674;52.290;-1.474;2023-12-07T05:22:39;100307.96;;;1.83;100.00
55755;BME280;41674;52.290;-1.474;2023-12-07T05:25:09;100305.80;;;1.92;100.00
55755;BME280;41674;52.290;-1.474;2023-12-07T05:27:38;100315.34;;;1.89;100.00
55755;BME280;41674;52.290;-1.474;2023-12-07T05:30:08;100304.98;;;2.09;100.00
55755;BME280;41674;52.290;-1.474;2023-12-07T05:32:37;100297.97;;;2.16;100.00
55755;BME280;41674;52.290;-1.474;2023-12-07T05:35:07;100301.07;;;1.54;100.00
55755;BME280;41674;52.290;-1.474;2023-12-07T05:37:36;100299.17;;;1.81;100.00
55755;BME280;41674;52.290;-1.474;2023-12-07T05:40:07;100303.03;;;1.48;100.00
55755;BME280;41674;52.290;-1.474;2023-12-07T05:42:36;100296.36;;;2.58;100.00
55755;BME280;41674;52.290;-1.474;2023-12-07T05:45:06;100296.08;;;2.58;100.00
55755;BME280;41674;52.290;-1.474;2023-12-07T05:47:34;100291.51;;;2.07;100.00
55755;BME280;41674;52.290;-1.474;2023-12-07T05:52:33;100283.61;;;1.92;100.00
55755;BME280;41674;52.290;-1.474;2023-12-07T05:55:03;100276.87;;;1.78;100.00
55755;BME280;41674;52.290;-1.474;2023-12-07T05:57:31;100278.10;;;2.66;100.00
55755;BME280;41674;52.290;-1.474;2023-12-07T06:00:01;100279.50;;;2.48;100.00
55755;BME280;41674;52.290;-1.474;2023-12-07T06:02:30;100274.91;;;2.51;100.00
55755;BME280;41674;52.290;-1.474;2023-12-07T06:05:00;100265.91;;;2.39;100.00
55755;BME280;41674;52.290;-1.474;2023-12-07T06:07:30;100266.41;;;1.90;100.00
55755;BME280;41674;52.290;-1.474;2023-12-07T06:10:00;100255.03;;;2.82;100.00
55755;BME280;41674;52.290;-1.474;2023-12-07T06:12:29;100251.32;;;2.88;100.00
55755;BME280;41674;52.290;-1.474;2023-12-07T06:14:58;100245.36;;;2.79;100.00
55755;BME280;41674;52.290;-1.474;2023-12-07T06:17:27;100242.06;;;1.98;100.00
55755;BME280;41674;52.290;-1.474;2023-12-07T06:19:57;100236.03;;;1.85;100.00
55755;BME280;41674;52.290;-1.474;2023-12-07T06:22:26;100234.53;;;2.22;100.00
55755;BME280;41674;52.290;-1.474;2023-12-07T06:24:56;100235.10;;;2.84;100.00
55755;BME280;41674;52.290;-1.474;2023-12-07T06:27:25;100227.83;;;2.96;100.00
55755;BME280;41674;52.290;-1.474;2023-12-07T06:29:55;100227.51;;;2.52;100.00
55755;BME280;41674;52.290;-1.474;2023-12-07T06:32:24;100217.93;;;2.55;100.00
55755;BME280;41674;52.290;-1.474;2023-12-07T06:34:54;100214.54;;;2.02;100.00
55755;BME280;41674;52.290;-1.474;2023-12-07T06:37:23;100217.50;;;2.80;100.00
55755;BME280;41674;52.290;-1.474;2023-12-07T06:39:53;100216.89;;;3.12;100.00
55755;BME280;41674;52.290;-1.474;2023-12-07T06:42:23;100216.29;;;2.68;100.00
55755;BME280;41674;52.290;-1.474;2023-12-07T06:44:53;100220.43;;;2.65;100.00
55755;BME280;41674;52.290;-1.474;2023-12-07T06:47:22;100217.86;;;2.68;100.00
55755;BME280;41674;52.290;-1.474;2023-12-07T06:49:52;100209.59;;;3.45;100.00
55755;BME280;41674;52.290;-1.474;2023-12-07T06:52:21;100209.07;;;2.83;100.00
55755;BME280;41674;52.290;-1.474;2023-12-07T06:54:51;100204.79;;;2.38;100.00
55755;BME280;41674;52.290;-1.474;2023-12-07T06:57:21;100206.38;;;2.86;100.00
55755;BME280;41674;52.290;-1.474;2023-12-07T06:59:49;100201.58;;;2.93;100.00
55755;BME280;41674;52.290;-1.474;2023-12-07T07:02:19;100204.28;;;3.31;100.00
55755;BME280;41674;52.290;-1.474;2023-12-07T07:04:48;100188.42;;;3.81;100.00
55755;BME280;41674;52.290;-1.474;2023-12-07T07:07:18;100191.02;;;2.91;100.00
55755;BME280;41674;52.290;-1.474;2023-12-07T07:09:47;100188.64;;;3.16;100.00
55755;BME280;41674;52.290;-1.474;2023-12-07T07:12:17;100184.04;;;3.38;100.00
55755;BME280;41674;52.290;-1.474;2023-12-07T07:14:46;100174.74;;;3.81;100.00
55755;BME280;41674;52.290;-1.474;2023-12-07T07:17:15;100179.27;;;2.81;100.00
55755;BME280;41674;52.290;-1.474;2023-12-07T07:19:45;100164.90;;;3.54;100.00
55755;BME280;41674;52.290;-1.474;2023-12-07T07:22:15;100157.54;;;3.32;100.00
55755;BME280;41674;52.290;-1.474;2023-12-07T07:24:45;100157.54;;;3.45;100.00
55755;BME280;41674;52.290;-1.474;2023-12-07T07:27:14;100154.98;;;2.90;100.00
55755;BME280;41674;52.290;-1.474;2023-12-07T07:29:43;100147.18;;;3.64;100.00
55755;BME280;41674;52.290;-1.474;2023-12-07T07:32:13;100148.55;;;3.36;100.00
55755;BME280;41674;52.290;-1.474;2023-12-07T07:34:42;100154.07;;;3.82;100.00
55755;BME280;41674;52.290;-1.474;2023-12-07T07:37:12;100149.66;;;3.30;100.00
55755;BME280;41674;52.290;-1.474;2023-12-07T07:39:41;100148.89;;;3.34;100.00
55755;BME280;41674;52.290;-1.474;2023-12-07T07:42:11;100142.72;;;3.02;100.00
55755;BME280;41674;52.290;-1.474;2023-12-07T07:44:40;100151.43;;;3.55;100.00
55755;BME280;41674;52.290;-1.474;2023-12-07T07:47:09;100140.17;;;3.90;100.00
55755;BME280;41674;52.290;-1.474;2023-12-07T07:49:39;100142.05;;;4.44;100.00
55755;BME280;41674;52.290;-1.474;2023-12-07T07:52:08;100140.88;;;2.98;100.00
55755;BME280;41674;52.290;-1.474;2023-12-07T07:54:38;100145.69;;;3.44;100.00
55755;BME280;41674;52.290;-1.474;2023-12-07T07:57:07;100144.89;;;3.30;100.00
55755;BME280;41674;52.290;-1.474;2023-12-07T07:59:37;100147.88;;;3.18;100.00
55755;BME280;41674;52.290;-1.474;2023-12-07T08:02:06;100139.55;;;4.29;100.00
55755;BME280;41674;52.290;-1.474;2023-12-07T08:04:35;100143.62;;;4.06;100.00
55755;BME280;41674;52.290;-1.474;2023-12-07T08:07:06;100139.40;;;4.26;100.00
55755;BME280;41674;52.290;-1.474;2023-12-07T08:09:34;100140.79;;;4.07;100.00
55755;BME280;41674;52.290;-1.474;2023-12-07T08:12:04;100140.48;;;3.73;100.00
55755;BME280;41674;52.290;-1.474;2023-12-07T08:14:35;100135.54;;;3.33;100.00
55755;BME280;41674;52.290;-1.474;2023-12-07T08:17:03;100126.14;;;3.72;100.00
55755;BME280;41674;52.290;-1.474;2023-12-07T08:19:32;100120.64;;;4.01;100.00
55755;BME280;41674;52.290;-1.474;2023-12-07T08:22:01;100111.63;;;3.34;100.00
55755;BME280;41674;52.290;-1.474;2023-12-07T08:24:31;100101.14;;;3.91;100.00
55755;BME280;41674;52.290;-1.474;2023-12-07T08:27:00;100095.69;;;3.83;100.00
55755;BME280;41674;52.290;-1.474;2023-12-07T08:29:30;100093.54;;;3.51;100.00
55755;BME280;41674;52.290;-1.474;2023-12-07T08:32:00;100088.72;;;3.72;100.00
55755;BME280;41674;52.290;-1.474;2023-12-07T08:34:30;100085.71;;;3.46;100.00
55755;BME280;41674;52.290;-1.474;2023-12-07T08:36:59;100081.40;;;3.43;100.00
55755;BME280;41674;52.290;-1.474;2023-12-07T08:39:28;100072.54;;;3.20;100.00
55755;BME280;41674;52.290;-1.474;2023-12-07T08:41:58;100066.54;;;3.90;100.00
55755;BME280;41674;52.290;-1.474;2023-12-07T08:44:27;100061.83;;;3.41;100.00
55755;BME280;41674;52.290;-1.474;2023-12-07T08:46:57;100053.60;;;3.56;100.00
55755;BME280;41674;52.290;-1.474;2023-12-07T08:49:26;100048.89;;;3.82;100.00
55755;BME280;41674;52.290;-1.474;2023-12-07T08:51:56;100044.30;;;3.94;100.00
55755;BME280;41674;52.290;-1.474;2023-12-07T08:54:25;100042.04;;;3.55;100.00
55755;BME280;41674;52.290;-1.474;2023-12-07T08:56:56;100029.53;;;2.69;100.00
55755;BME280;41674;52.290;-1.474;2023-12-07T08:59:25;100024.42;;;3.06;100.00
55755;BME280;41674;52.290;-1.474;2023-12-07T09:01:54;100017.90;;;3.58;100.00
55755;BME280;41674;52.290;-1.474;2023-12-07T09:04:23;100012.80;;;2.69;100.00
55755;BME280;41674;52.290;-1.474;2023-12-07T09:06:53;100007.76;;;3.50;100.00
55755;BME280;41674;52.290;-1.474;2023-12-07T09:09:23;100003.85;;;3.50;100.00
55755;BME280;41674;52.290;-1.474;2023-12-07T09:11:52;100004.11;;;2.85;100.00
55755;BME280;41674;52.290;-1.474;2023-12-07T09:14:22;99996.67;;;3.39;100.00
55755;BME280;41674;52.290;-1.474;2023-12-07T09:16:52;100003.89;;;3.29;100.00
55755;BME280;41674;52.290;-1.474;2023-12-07T09:19:21;99998.97;;;3.05;100.00
55755;BME280;41674;52.290;-1.474;2023-12-07T09:21:51;99996.21;;;3.75;100.00
55755;BME280;41674;52.290;-1.474;2023-12-07T09:24:21;100002.20;;;3.57;100.00
55755;BME280;41674;52.290;-1.474;2023-12-07T09:26:50;100001.30;;;3.27;100.00
55755;BME280;41674;52.290;-1.474;2023-12-07T09:29:20;100004.34;;;3.47;100.00
55755;BME280;41674;52.290;-1.474;2023-12-07T09:31:49;100002.43;;;3.73;100.00
55755;BME280;41674;52.290;-1.474;2023-12-07T09:34:19;100007.01;;;3.65;100.00
55755;BME280;41674;52.290;-1.474;2023-12-07T09:36:49;100000.76;;;3.53;100.00
55755;BME280;41674;52.290;-1.474;2023-12-07T09:39:18;100004.46;;;3.47;100.00
55755;BME280;41674;52.290;-1.474;2023-12-07T09:41:48;100005.76;;;3.40;100.00
55755;BME280;41674;52.290;-1.474;2023-12-07T09:44:17;100014.01;;;3.23;100.00
55755;BME280;41674;52.290;-1.474;2023-12-07T09:46:47;100008.06;;;3.49;100.00
55755;BME280;41674;52.290;-1.474;2023-12-07T09:49:17;100014.12;;;3.76;100.00
55755;BME280;41674;52.290;-1.474;2023-12-07T09:51:47;100008.35;;;4.19;100.00
55755;BME280;41674;52.290;-1.474;2023-12-07T09:54:17;100007.63;;;3.55;100.00
55755;BME280;41674;52.290;-1.474;2023-12-07T09:56:46;99995.34;;;4.06;100.00
55755;BME280;41674;52.290;-1.474;2023-12-07T09:59:15;99996.31;;;4.34;100.00
55755;BME280;41674;52.290;-1.474;2023-12-07T10:01:45;99993.46;;;4.31;100.00
55755;BME280;41674;52.290;-1.474;2023-12-07T10:04:18;99987.30;;;4.42;100.00
55755;BME280;41674;52.290;-1.474;2023-12-07T10:06:45;99988.15;;;4.42;100.00
55755;BME280;41674;52.290;-1.474;2023-12-07T10:09:14;99984.15;;;4.29;100.00
55755;BME280;41674;52.290;-1.474;2023-12-07T10:11:43;99981.88;;;4.42;100.00
55755;BME280;41674;52.290;-1.474;2023-12-07T10:14:13;99973.62;;;3.95;100.00
55755;BME280;41674;52.290;-1.474;2023-12-07T10:16:52;99974.82;;;4.51;100.00
55755;BME280;41674;52.290;-1.474;2023-12-07T10:19:14;99972.37;;;3.97;100.00
55755;BME280;41674;52.290;-1.474;2023-12-07T10:21:42;99965.09;;;4.46;100.00
55755;BME280;41674;52.290;-1.474;2023-12-07T10:24:11;99964.17;;;3.89;100.00
55755;BME280;41674;52.290;-1.474;2023-12-07T10:26:41;99957.98;;;4.48;100.00
55755;BME280;41674;52.290;-1.474;2023-12-07T10:29:11;99953.99;;;4.51;100.00
55755;BME280;41674;52.290;-1.474;2023-12-07T10:31:40;99949.84;;;4.70;100.00
55755;BME280;41674;52.290;-1.474;2023-12-07T10:34:10;99955.70;;;4.41;100.00
55755;BME280;41674;52.290;-1.474;2023-12-07T10:36:39;99963.25;;;5.12;100.00
55755;BME280;41674;52.290;-1.474;2023-12-07T10:39:08;99961.20;;;4.52;100.00
55755;BME280;41674;52.290;-1.474;2023-12-07T10:41:39;99957.00;;;5.10;100.00
55755;BME280;41674;52.290;-1.474;2023-12-07T10:44:09;99959.09;;;4.78;100.00
55755;BME280;41674;52.290;-1.474;2023-12-07T10:46:37;99957.04;;;4.72;100.00
55755;BME280;41674;52.290;-1.474;2023-12-07T10:49:08;99956.32;;;4.92;100.00
55755;BME280;41674;52.290;-1.474;2023-12-07T10:51:41;99950.93;;;4.95;100.00
55755;BME280;41674;52.290;-1.474;2023-12-07T10:54:07;99945.94;;;4.87;100.00
55755;BME280;41674;52.290;-1.474;2023-12-07T10:56:39;99947.45;;;5.12;100.00
55755;BME280;41674;52.290;-1.474;2023-12-07T10:59:10;99944.89;;;4.94;100.00
55755;BME280;41674;52.290;-1.474;2023-12-07T11:01:34;99938.02;;;5.34;100.00
55755;BME280;41674;52.290;-1.474;2023-12-07T11:04:05;99930.84;;;5.61;100.00
55755;BME280;41674;52.290;-1.474;2023-12-07T11:06:33;99933.26;;;4.49;100.00
55755;BME280;41674;52.290;-1.474;2023-12-07T11:09:07;99928.46;;;4.65;100.00
55755;BME280;41674;52.290;-1.474;2023-12-07T11:11:38;99928.99;;;4.98;100.00
55755;BME280;41674;52.290;-1.474;2023-12-07T11:14:03;99922.50;;;5.24;100.00
55755;BME280;41674;52.290;-1.474;2023-12-07T11:16:32;99925.65;;;5.54;100.00
55755;BME280;41674;52.290;-1.474;2023-12-07T11:19:01;99921.51;;;5.51;100.00
55755;BME280;41674;52.290;-1.474;2023-12-07T11:21:30;99911.21;;;5.29;100.00
55755;BME280;41674;52.290;-1.474;2023-12-07T11:24:00;99908.06;;;5.29;100.00
55755;BME280;41674;52.290;-1.474;2023-12-07T11:26:29;99912.45;;;4.98;100.00
55755;BME280;41674;52.290;-1.474;2023-12-07T11:28:58;99907.21;;;4.61;100.00
55755;BME280;41674;52.290;-1.474;2023-12-07T11:31:27;99897.37;;;4.86;100.00
55755;BME280;41674;52.290;-1.474;2023-12-07T11:33:57;99890.99;;;5.03;100.00
55755;BME280;41674;52.290;-1.474;2023-12-07T11:36:26;99888.95;;;6.29;100.00
55755;BME280;41674;52.290;-1.474;2023-12-07T11:41:29;99875.75;;;6.38;100.00
55755;BME280;41674;52.290;-1.474;2023-12-07T11:43:58;99874.83;;;5.65;100.00
55755;BME280;41674;52.290;-1.474;2023-12-07T11:46:23;99869.55;;;6.03;100.00
55755;BME280;41674;52.290;-1.474;2023-12-07T11:48:54;99862.69;;;5.56;100.00
55755;BME280;41674;52.290;-1.474;2023-12-07T11:51:23;99853.11;;;5.58;100.00
55755;BME280;41674;52.290;-1.474;2023-12-07T11:53:52;99851.66;;;5.41;100.00
55755;BME280;41674;52.290;-1.474;2023-12-07T11:56:22;99842.95;;;5.37;100.00
55755;BME280;41674;52.290;-1.474;2023-12-07T11:58:52;99846.11;;;6.32;100.00
55755;BME280;41674;52.290;-1.474;2023-12-07T12:01:24;99833.27;;;6.03;100.00
55755;BME280;41674;52.290;-1.474;2023-12-07T12:03:51;99830.33;;;5.28;100.00
55755;BME280;41674;52.290;-1.474;2023-12-07T12:06:20;99817.80;;;5.78;100.00
55755;BME280;41674;52.290;-1.474;2023-12-07T12:08:50;99803.93;;;6.55;100.00
55755;BME280;41674;52.290;-1.474;2023-12-07T12:11:20;99797.32;;;6.51;100.00
55755;BME280;41674;52.290;-1.474;2023-12-07T12:13:49;99795.42;;;6.36;100.00
55755;BME280;41674;52.290;-1.474;2023-12-07T12:16:19;99789.53;;;6.03;100.00
55755;BME280;41674;52.290;-1.474;2023-12-07T12:18:49;99775.32;;;5.57;100.00
55755;BME280;41674;52.290;-1.474;2023-12-07T12:21:18;99771.11;;;5.87;100.00
55755;BME280;41674;52.290;-1.474;2023-12-07T12:23:49;99760.92;;;5.35;100.00
55755;BME280;41674;52.290;-1.474;2023-12-07T12:26:18;99749.07;;;6.27;100.00
55755;BME280;41674;52.290;-1.474;2023-12-07T12:28:47;99745.97;;;5.15;100.00
55755;BME280;41674;52.290;-1.474;2023-12-07T12:31:17;99735.62;;;5.07;100.00
55755;BME280;41674;52.290;-1.474;2023-12-07T12:33:48;99736.62;;;5.25;100.00
55755;BME280;41674;52.290;-1.474;2023-12-07T12:36:16;99733.87;;;6.00;100.00
55755;BME280;41674;52.290;-1.474;2023-12-07T12:38:47;99733.24;;;6.63;100.00
55755;BME280;41674;52.290;-1.474;2023-12-07T12:41:19;99732.08;;;5.97;100.00
55755;BME280;41674;52.290;-1.474;2023-12-07T12:43:45;99728.97;;;5.37;100.00
55755;BME280;41674;52.290;-1.474;2023-12-07T12:46:16;99723.38;;;5.08;100.00
55755;BME280;41674;52.290;-1.474;2023-12-07T12:48:54;99711.63;;;5.61;100.00
55755;BME280;41674;52.290;-1.474;2023-12-07T12:51:14;99695.62;;;5.45;100.00
55755;BME280;41674;52.290;-1.474;2023-12-07T12:53:45;99686.79;;;4.85;100.00
55755;BME280;41674;52.290;-1.474;2023-12-07T12:56:14;99677.52;;;4.79;100.00
55755;BME280;41674;52.290;-1.474;2023-12-07T12:58:42;99684.44;;;4.83;100.00
55755;BME280;41674;52.290;-1.474;2023-12-07T13:01:12;99683.86;;;4.31;100.00